NCAR-RAP Real-Time Weather Data

Output produced by METARs form (17 December 2018  07:33 UTC)
found at http://weather.rap.ucar.edu/surface/
 
RJOA 170700Z 29010KT 9999 FEW015 BKN020 06/00 Q1013
RJOA 170600Z 29015KT 9999 FEW015 BKN020 07/M00 Q1012
RJOA 170500Z 28009KT 240V310 9999 FEW015 SCT020 09/02 Q1012
RJOA 170400Z 28011KT 230V300 9999 -SHRA FEW015 BKN020 07/04 Q1012
RJOA 170300Z 29009KT 9999 -SHRA FEW015 BKN030 08/04 Q1012
RJOA 170200Z 28007KT 9999 -SHRA FEW008 SCT025 BKN030 07/05 Q1013
RJOA 170100Z 28006KT 9999 BCFG FEW000 SCT035 BKN060 08/05 Q1013
RJOA 170000Z 32003KT 280V350 9999 BCFG FEW000 SCT060 07/05 Q1012
RJOA 162335Z VRB02KT 9999 R10/1100VP1800U BCFG FEW000 SCT025 BKN060 06/05 Q1012 RMK 1ST000 3CU025 5SC060 A2990 4000W FG BANK SE AND S-W
RJOA 162334Z VRB02KT 9999 R10/0750VP1800U BCFG FEW000 SCT025 BKN060 05/05 Q1012 RMK 1ST000 3CU025 5SC060 A2990 4000W FG BANK SE AND S-W
RJOA 162328Z 36004KT 300V070 4000 R10/0300VP1800U -SHRA BCFG BR FEW000 SCT015 BKN025 05/04 Q1012 RMK 1ST000 3CU015 5CU025 A2990 1800W FG SE AND S-W
RJOA 162326Z 33005KT 300V070 2000 R10/0300V1100U -SHRA BCFG BR FEW000 SCT015 BKN025 05/04 Q1012 RMK 1ST000 3CU015 5CU025 A2991 FG SE AND S-W
RJOA 162322Z 31006KT 300V360 0900 R10/0300V0800U -SHRA FG FEW000 SCT001 BKN025 05/04 Q1013 RMK 1ST000 3ST001 5CU025 A2992
RJOA 162319Z 31005KT 0800 R10/0300V0450N -SHRA FG FEW000 SCT001 BKN025 05/04 Q1013 RMK 1ST000 3ST001 5CU025 A2992
RJOA 162317Z 31005KT 270V330 2000 R10/0350V0600N -SHRA BCFG BR FEW000 BKN025 BKN050 05/04 Q1013 RMK 1ST000 5CU025 6SC050 A2992 1000SW-W FG SE AND S-W
RJOA 162315Z 30005KT 270V330 4000 R10/0350V0600D -SHRA BCFG BR FEW000 SCT030 BKN050 05/04 Q1013 RMK 1ST000 3CU030 6SC050 A2992 1000SW-W FG SE AND S-W
RJOA 162311Z 30005KT 270V330 9999 R10/0350V0700D -SHRA BCFG FEW000 SCT030 BKN050 05/04 Q1013 RMK 1ST000 3CU030 6SC050 A2992 1000SW-W FG SE AND S-W
RJOA 162307Z 31005KT 280V360 9999 R10/0550V1700D BCFG FEW000 SCT030 BKN050 05/04 Q1013 RMK 1ST000 3CU030 6SC050 A2991 1000SW-W FG SE AND S-W
RJOA 162304Z 31005KT 290V360 8000 R10/0550VP1800D BCFG FEW000 SCT030 BKN050 05/04 Q1013 RMK 1ST000 3CU030 6SC050 A2991 1200SW-W FG SE AND S-W
RJOA 162300Z 31005KT 290V360 6000 R10/0800VP1800D BCFG FEW000 SCT030 BKN050 05/04 Q1012
RJOA 162241Z 28004KT 4000 R10/0300V1500D -SHRA BCFG BR FEW000 SCT015 BKN035 04/04 Q1012 RMK 1ST000 3CU015 5CU035 A2991 1000SW-W FG E-SE AND S-W
RJOA 162238Z 28005KT 4000 R10/0400VP1800D BCFG BR FEW000 SCT015 BKN035 05/04 Q1012 RMK 1ST000 3CU015 5CU035 A2991 1000SW-W FG E-SE AND S-W
RJOA 162218Z 31004KT 4000 BCFG BR FEW000 SCT015 BKN035 05/04 Q1012 RMK 1ST000 3CU015 5CU035 A2991 1600SW-W FG E-SE AND S-W
RJOA 162200Z 30005KT 3000 -SHRA BCFG BR FEW000 SCT010 BKN035 04/04 Q1012
RJOA 162148Z 32004KT 2000 R10/0600VP1800U BCFG BR FEW000 BKN045 04/03 Q1012 RMK 1ST000 5SC045 A2990 FG SE-S AND SW-W
RJOA 162145Z 32004KT 1200 R10/0350VP1800U BCFG BR FEW000 BKN045 04/03 Q1012 RMK 1ST000 5SC045 A2990 FG SE-S AND SW-W
RJOA 162138Z 30003KT 0700 R10/0300V0600N FG FEW000 BKN045 04/03 Q1012 RMK 1ST000 5SC045 A2990
RJOA 162135Z 27003KT 240V320 2000 R10/0300VP1800D BCFG BR FEW000 BKN045 04/03 Q1012 RMK 1ST000 5SC045 A2990 1000SW FG SE-S AND SW-W
RJOA 162125Z VRB01KT 3000 R28/P1800N BCFG BR FEW000 SCT035 BKN050 04/03 Q1012 RMK 1ST000 3CU035 5SC050 A2990 1000SW FG SE-S AND SW-W
RJOA 162110Z 33003KT 300V010 2000 R28/P1800N -SHRA BCFG BR FEW000 SCT002 BKN035 04/03 Q1012 RMK 1ST000 3ST002 5CU035 A2989 1000SW-W FG SE AND SW-W
RJOA 161300Z 30003KT 4000 -SHRA BCFG BR FEW000 SCT015 BKN030 06/05 Q1015
RJOA 161200Z VRB01KT 4000 R10/1200VP1800U -SHRA BCFG BR FEW000 SCT015 BKN030 06/05 Q1015
RJOA 161141Z VRB02KT 4000 R10/0450VP1800D -SHRA BCFG BR FEW000 SCT007 BKN015 05/04 Q1015 RMK 1ST000 3ST007 5CU015 A3000 1200W FG E-S AND SW-W
RJOA 161138Z VRB02KT 4000 R10/0450VP1800D -SHRA BCFG BR FEW000 SCT007 BKN015 05/04 Q1015 RMK 1ST000 3ST007 5CU015 A3000 1500W FG E-S AND SW-W
RJOA 161136Z VRB02KT 4000 R10/0500VP1800D -SHRA BCFG BR FEW000 SCT007 BKN015 05/04 Q1015 RMK 1ST000 3ST007 5CU015 A3000 1500W FG E-S AND SW-W
RJOA 161118Z 33004KT 300V040 4000 -SHRA BCFG BR FEW000 SCT007 BKN015 06/04 Q1015 RMK 1ST000 3ST007 5CU015 A2999 FG BANK E-S AND SW-W
RJOA 161103Z 34007KT 3000 SHRA BCFG BR FEW000 SCT007 BKN010 06/04 Q1015 RMK 1ST000 3ST007 5CU010 A3000 FG E-S AND SW-W
RJOA 161100Z 33007KT 3000 -SHRA BCFG BR FEW000 SCT007 BKN010 06/04 Q1015
RJOA 161048Z 33004KT 300V050 3000 -SHRA BCFG BR FEW000 SCT007 BKN010 05/04 Q1016 RMK 1ST000 3ST007 5CU010 A3000 FG E-S AND SW-W
RJOA 161013Z 34003KT 310V020 3000 -RA BCFG BR FEW000 SCT005 BKN008 05/04 Q1016 RMK 1ST000 3ST005 6ST008 A3001 FG E-S AND SW-W
RJOA 161000Z VRB02KT 1600 -RA BCFG BR FEW000 SCT005 BKN008 05/04 Q1016
RJOA 160941Z 35003KT 310V050 1500 R10/P1800N -RA BCFG BR FEW000 SCT002 BKN008 05/04 Q1016 RMK 1ST000 3ST002 6ST008 A3002 FG ALL QUAD
RJOA 160915Z 07005KT 2000 -RA BCFG BR FEW000 SCT002 BKN008 05/04 Q1016 RMK 1ST000 3ST002 6ST008 A3002 FG E-SE AND SW-W
RJOA 160900Z 09005KT 2500 -RA BCFG BR FEW000 SCT002 BKN008 05/04 Q1016
RJOA 160841Z 10004KT 3000 -RA BCFG BR FEW000 SCT002 BKN008 05/04 Q1017 RMK 1ST000 3ST002 5ST008 A3003 FG E-SE AND SW-W
RJOA 160800Z 11006KT 3500 -RA BCFG BR FEW000 SCT002 BKN008 05/04 Q1017
RJOA 160742Z 11006KT 2500 -RA BCFG BR FEW000 SCT002 BKN008 05/04 Q1017 RMK 1ST000 3ST002 5ST008 A3005 FG ALL QUAD
RJOA 160729Z 10007KT 1800 -RA BCFG BR FEW000 SCT002 BKN008 05/04 Q1017 RMK 1ST000 3ST002 5ST008 A3005 FG ALL QUAD
RJOA 160721Z 10007KT 1500 R10/P1800N -RA BCFG BR FEW000 SCT002 BKN009 05/04 Q1017 RMK 1ST000 3ST002 5ST009 A3005 FG ALL QUAD
RJOA 160700Z 12004KT 0900 R10/P1800N -RA FG FEW000 SCT002 BKN009 05/04 Q1017
RJOA 160635Z 13003KT 090V170 2000 R10/P1800N -RA BCFG BR FEW000 SCT010 BKN035 05/04 Q1018 RMK 1ST000 3CU010 6SC035 A3007 1000SW FG SE-S AND SW
RJOA 160626Z 12003KT 2500 R10/P1800N -RA BCFG BR FEW000 SCT010 BKN035 05/04 Q1018 RMK 1ST000 3CU010 6SC035 A3007 1200SW FG SE-S AND SW
RJOA 160600Z 08005KT 3500 -RA BCFG BR FEW000 SCT025 BKN040 05/04 Q1018
RJOA 160540Z 11003KT 070V140 4000 -RA BCFG BR FEW000 SCT025 BKN040 05/03 Q1018 RMK 1ST000 3CU025 5SC040 A3008 FG BANK SE-S AND SW
RJOA 160500Z 13003KT 070V160 5000 -RA BR FEW015 SCT025 BKN040 05/03 Q1019
RJOA 160400Z 09003KT 9999 -RA FEW015 BKN040 BKN100 06/03 Q1019
RJOA 160300Z 11004KT 9999 -RA FEW015 SCT045 BKN100 06/02 Q1020
RJOA 160200Z 09003KT 050V130 9999 FEW020 SCT035 BKN100 06/02 Q1022
RJOA 160100Z 11003KT 050V160 9999 FEW020 BKN035 BKN110 05/01 Q1023
RJOA 160000Z 05004KT 9999 FEW020 SCT035 BKN120 04/00 Q1023
RJOA 151300Z 07002KT CAVOK 04/00 Q1027
RJOA 151200Z 07002KT 9999 FEW015 04/00 Q1028
RJOA 151100Z 06004KT 020V090 9999 FEW015 05/00 Q1028
RJOA 151000Z 07003KT 9999 FEW020 SCT/// 04/00 Q1028
RJOA 150900Z 09004KT 050V170 9999 FEW020 SCT030 BKN/// 05/00 Q1027
RJOA 150800Z 11003KT 080V140 9999 FEW025 SCT040 05/M01 Q1027
RJOA 150700Z 15003KT 9999 FEW025 SCT040 06/M01 Q1027
RJOA 150600Z 36005KT 9999 FEW025 SCT040 07/M03 Q1027
RJOA 150500Z 35006KT 300V040 9999 FEW025 BKN035 08/M02 Q1027
RJOA 150400Z 31006KT 9999 FEW025 BKN035 07/M02 Q1028
RJOA 150300Z VRB03KT 9999 FEW020 BKN030 08/M01 Q1028
RJOA 150200Z 08004KT 010V130 9999 FEW020 SCT030 07/M01 Q1029
RJOA 150100Z 11003KT 330V140 9999 FEW020 06/M01 Q1030
RJOA 150000Z 35006KT 9999 FEW003 SCT060 05/M01 Q1030
RJOA 142300Z 36007KT 330V080 9999 FEW001 BKN060 04/M01 Q1029
RJOA 142200Z VRB02KT 9999 PRFG FEW000 SCT060 00/M02 Q1029
RJOA 142110Z 33005KT 260V360 9999 FEW015 SCT060 02/M02 Q1029 RMK 1CU015 4SC060 A3039